createdAt,value
2023-04-18T00:00:52.057Z,34.79
2023-04-18T00:01:52.083Z,34.70
2023-04-18T00:02:52.188Z,34.66
2023-04-18T00:03:52.218Z,34.60
2023-04-18T00:04:52.050Z,34.55
2023-04-18T00:05:51.977Z,34.48
2023-04-18T00:06:51.984Z,34.43
2023-04-18T00:07:51.966Z,34.37
2023-04-18T00:08:51.936Z,34.32
2023-04-18T00:09:51.933Z,34.27
2023-04-18T00:10:51.989Z,34.22
2023-04-18T00:11:51.908Z,34.16
2023-04-18T00:12:51.892Z,34.11
2023-04-18T00:13:51.853Z,34.05
2023-04-18T00:14:51.842Z,34.02
2023-04-18T00:15:51.809Z,34.00
2023-04-18T00:16:51.936Z,33.95
2023-04-18T00:17:51.854Z,33.94
2023-04-18T00:18:51.862Z,33.92
2023-04-18T00:19:51.900Z,33.89
2023-04-18T00:20:51.909Z,33.86
2023-04-18T00:21:51.936Z,33.85
2023-04-18T00:22:51.957Z,33.82
2023-04-18T00:23:51.980Z,33.81
2023-04-18T00:24:52.022Z,33.79
2023-04-18T00:25:52.051Z,33.74
2023-04-18T00:26:52.108Z,33.71
2023-04-18T00:27:52.096Z,33.76
2023-04-18T00:28:52.139Z,33.68
2023-04-18T00:29:52.159Z,33.70
2023-04-18T00:30:52.240Z,33.66
2023-04-18T00:31:52.224Z,33.67
2023-04-18T00:32:52.292Z,33.65
2023-04-18T00:33:52.278Z,33.64
2023-04-18T00:34:52.312Z,33.63
2023-04-18T00:35:52.325Z,33.60
2023-04-18T00:36:52.359Z,33.59
2023-04-18T00:37:52.406Z,33.61
2023-04-18T00:38:52.420Z,33.58
2023-04-18T00:39:52.451Z,33.56
2023-04-18T00:40:52.482Z,33.55
2023-04-18T00:41:52.512Z,33.54
2023-04-18T00:42:52.559Z,33.53
2023-04-18T00:43:52.558Z,33.55
2023-04-18T00:44:52.582Z,33.54
2023-04-18T00:45:52.673Z,33.53
2023-04-18T00:46:52.630Z,33.50
2023-04-18T00:47:52.780Z,33.51
2023-04-18T00:48:52.683Z,33.51
2023-04-18T00:49:52.692Z,33.51
2023-04-18T00:50:52.711Z,33.50
2023-04-18T00:51:52.734Z,33.51
2023-04-18T00:52:52.755Z,33.50
2023-04-18T00:53:52.778Z,33.49
2023-04-18T00:54:52.804Z,33.48
2023-04-18T00:55:52.826Z,33.48
2023-04-18T00:56:52.840Z,33.47
2023-04-18T00:57:52.863Z,33.49
2023-04-18T00:58:52.904Z,33.46
2023-04-18T00:59:52.913Z,33.45
2023-04-18T01:00:52.930Z,33.44
2023-04-18T01:01:53.160Z,33.45
2023-04-18T01:02:53.196Z,33.44
2023-04-18T01:03:53.176Z,33.45
2023-04-18T01:04:53.039Z,33.46
2023-04-18T01:05:53.049Z,33.45
2023-04-18T01:06:53.081Z,33.45
2023-04-18T01:07:53.102Z,33.42
2023-04-18T01:08:53.125Z,33.44
2023-04-18T01:09:53.161Z,33.41
2023-04-18T01:10:53.176Z,33.42
2023-04-18T01:11:53.220Z,33.40
2023-04-18T01:12:53.233Z,33.40
2023-04-18T01:13:53.261Z,33.39
2023-04-18T01:14:53.311Z,33.38
2023-04-18T01:15:53.333Z,33.39
2023-04-18T01:16:53.337Z,33.38
2023-04-18T01:17:53.381Z,33.38
2023-04-18T01:18:53.376Z,33.39
2023-04-18T01:19:53.402Z,33.40
2023-04-18T01:20:53.427Z,33.38
2023-04-18T01:21:53.490Z,33.38
2023-04-18T01:22:53.479Z,33.40
2023-04-18T01:23:53.517Z,33.41
2023-04-18T01:24:53.540Z,33.41
2023-04-18T01:25:53.563Z,33.39
2023-04-18T01:26:53.589Z,33.40
2023-04-18T01:27:53.616Z,33.40
2023-04-18T01:28:53.643Z,33.38
2023-04-18T01:29:53.688Z,33.39
2023-04-18T01:30:53.758Z,33.38
2023-04-18T01:31:53.714Z,33.36
2023-04-18T01:32:53.798Z,33.38
2023-04-18T01:33:53.769Z,33.38
2023-04-18T01:34:53.799Z,33.37
2023-04-18T01:35:53.829Z,33.36
2023-04-18T01:36:53.847Z,33.37
2023-04-18T01:37:53.881Z,33.37
2023-04-18T01:38:53.910Z,33.35
2023-04-18T01:39:53.929Z,33.34
2023-04-18T01:40:53.966Z,33.31
2023-04-18T01:41:53.974Z,33.33
2023-04-18T01:42:54.004Z,33.33
2023-04-18T01:43:54.023Z,33.33
2023-04-18T01:44:54.053Z,33.30
2023-04-18T01:45:54.077Z,33.32
2023-04-18T01:46:54.169Z,33.32
2023-04-18T01:47:54.157Z,33.32
2023-04-18T01:48:54.157Z,33.30
2023-04-18T01:49:54.188Z,33.33
2023-04-18T01:50:54.215Z,33.31
2023-04-18T01:51:54.248Z,33.32
2023-04-18T01:52:54.281Z,33.32
2023-04-18T01:53:54.321Z,33.30
2023-04-18T01:54:54.333Z,33.30
2023-04-18T01:55:54.355Z,33.32
2023-04-18T01:56:54.397Z,33.30
2023-04-18T01:57:54.417Z,33.32
2023-04-18T01:58:54.446Z,33.31
2023-04-18T01:59:54.674Z,33.32
2023-04-18T02:00:54.555Z,33.32
2023-04-18T02:01:54.666Z,33.31
2023-04-18T02:02:54.655Z,33.30
2023-04-18T02:03:54.690Z,33.31
2023-04-18T02:04:54.619Z,33.31
2023-04-18T02:05:54.663Z,33.31
2023-04-18T02:06:54.686Z,33.30
2023-04-18T02:07:54.702Z,33.31
2023-04-18T02:08:54.759Z,33.29
2023-04-18T02:09:54.757Z,33.29
2023-04-18T02:10:54.793Z,33.29
2023-04-18T02:11:54.826Z,33.29
2023-04-18T02:12:54.856Z,33.29
2023-04-18T02:13:54.873Z,33.29
2023-04-18T02:14:54.906Z,33.30
2023-04-18T02:15:54.929Z,33.30
2023-04-18T02:16:55.057Z,33.28
2023-04-18T02:17:54.992Z,33.28
2023-04-18T02:18:55.042Z,33.26
2023-04-18T02:19:55.045Z,33.26
2023-04-18T02:20:55.076Z,33.25
2023-04-18T02:21:55.103Z,33.26
2023-04-18T02:22:55.140Z,33.27
2023-04-18T02:23:55.167Z,33.26
2023-04-18T02:24:55.192Z,33.28
2023-04-18T02:25:55.228Z,33.26
2023-04-18T02:26:55.255Z,33.26
2023-04-18T02:27:55.292Z,33.26
2023-04-18T02:28:55.331Z,33.27
2023-04-18T02:29:55.353Z,33.25
2023-04-18T02:30:55.381Z,33.26
2023-04-18T02:31:55.464Z,33.26
2023-04-18T02:32:55.502Z,33.27
2023-04-18T02:33:55.468Z,33.25
2023-04-18T02:34:55.521Z,33.27
2023-04-18T02:35:55.516Z,33.25
2023-04-18T02:36:55.546Z,33.28
2023-04-18T02:37:55.569Z,33.25
2023-04-18T02:38:55.600Z,33.26
2023-04-18T02:39:55.637Z,33.25
2023-04-18T02:40:55.663Z,33.25
2023-04-18T02:41:55.691Z,33.24
2023-04-18T02:42:55.714Z,33.26
2023-04-18T02:43:55.737Z,33.23
2023-04-18T02:44:55.780Z,33.24
2023-04-18T02:45:55.852Z,33.25
2023-04-18T02:46:55.826Z,33.24
2023-04-18T02:47:56.657Z,33.23
2023-04-18T02:48:55.894Z,33.25
2023-04-18T02:49:55.919Z,33.22
2023-04-18T02:50:56.021Z,33.22
2023-04-18T02:51:55.978Z,33.22
2023-04-18T02:52:56.064Z,33.22
2023-04-18T02:53:56.032Z,33.23
2023-04-18T02:54:56.071Z,33.22
2023-04-18T02:55:56.138Z,33.23
2023-04-18T02:56:56.132Z,33.24
2023-04-18T02:57:56.156Z,33.25
2023-04-18T02:58:56.182Z,33.25
2023-04-18T02:59:56.217Z,33.26
2023-04-18T03:00:56.278Z,33.28
2023-04-18T03:01:56.308Z,33.26
2023-04-18T03:02:56.396Z,33.25
2023-04-18T03:03:56.369Z,33.22
2023-04-18T03:04:56.437Z,33.24
2023-04-18T03:05:56.409Z,33.24
2023-04-18T03:06:56.459Z,33.22
2023-04-18T03:07:56.458Z,33.23
2023-04-18T03:08:56.489Z,33.22
2023-04-18T03:09:56.524Z,33.21
2023-04-18T03:10:56.572Z,33.22
2023-04-18T03:11:56.588Z,33.21
2023-04-18T03:12:56.603Z,33.22
2023-04-18T03:13:56.645Z,33.21
2023-04-18T03:14:56.684Z,33.18
2023-04-18T03:15:56.737Z,33.21
2023-04-18T03:16:56.737Z,33.20
2023-04-18T03:17:56.809Z,33.21
2023-04-18T03:18:56.798Z,33.21
2023-04-18T03:19:56.825Z,33.21
2023-04-18T03:20:56.862Z,33.19
2023-04-18T03:21:56.891Z,33.20
2023-04-18T03:22:57.031Z,33.18
2023-04-18T03:23:56.949Z,33.19
2023-04-18T03:24:56.936Z,33.17
2023-04-18T03:25:56.964Z,33.16
2023-04-18T03:26:56.977Z,33.14
2023-04-18T03:27:56.994Z,33.13
2023-04-18T03:28:57.028Z,33.12
2023-04-18T03:29:57.050Z,33.09
2023-04-18T03:30:57.118Z,33.09
2023-04-18T03:31:57.104Z,33.08
2023-04-18T03:32:57.149Z,33.10
2023-04-18T03:33:57.139Z,33.09
2023-04-18T03:34:57.166Z,33.07
2023-04-18T03:35:57.184Z,33.06
2023-04-18T03:36:57.205Z,33.04
2023-04-18T03:37:57.213Z,33.07
2023-04-18T03:38:57.263Z,33.04
2023-04-18T03:39:57.258Z,33.04
2023-04-18T03:40:57.262Z,33.02
2023-04-18T03:41:57.273Z,33.01
2023-04-18T03:42:57.277Z,33.03
2023-04-18T03:43:57.301Z,33.00
2023-04-18T03:44:57.320Z,33.03
2023-04-18T03:45:57.361Z,33.01
2023-04-18T03:46:57.353Z,32.99
2023-04-18T03:47:57.386Z,32.99
2023-04-18T03:48:57.356Z,32.98
2023-04-18T03:49:57.364Z,32.98
2023-04-18T03:50:57.374Z,32.98
2023-04-18T03:51:57.381Z,32.93
2023-04-18T03:52:57.391Z,32.94
2023-04-18T03:53:57.409Z,32.95
2023-04-18T03:54:57.472Z,32.93
2023-04-18T03:55:57.427Z,32.94
2023-04-18T03:56:57.451Z,32.91
2023-04-18T03:57:57.450Z,32.91
2023-04-18T03:58:57.458Z,32.90
2023-04-18T03:59:57.470Z,32.88
2023-04-18T04:00:57.471Z,32.86
2023-04-18T04:01:57.545Z,32.88
2023-04-18T04:02:57.691Z,32.88
2023-04-18T04:03:57.635Z,32.87
2023-04-18T04:04:57.542Z,32.88
2023-04-18T04:05:57.518Z,32.87
2023-04-18T04:06:57.518Z,32.84
2023-04-18T04:07:57.530Z,32.85
2023-04-18T04:08:57.538Z,32.84
2023-04-18T04:09:57.534Z,32.86
2023-04-18T04:10:57.558Z,32.85
2023-04-18T04:11:57.538Z,32.84
2023-04-18T04:12:57.541Z,32.83
2023-04-18T04:13:57.545Z,32.82
2023-04-18T04:14:57.541Z,32.82
2023-04-18T04:15:57.547Z,32.81
2023-04-18T04:16:57.544Z,32.81
2023-04-18T04:17:57.589Z,32.80
2023-04-18T04:18:57.550Z,32.82
2023-04-18T04:19:57.549Z,32.79
2023-04-18T04:20:57.534Z,32.79
2023-04-18T04:21:57.540Z,32.80
2023-04-18T04:22:57.540Z,32.80
2023-04-18T04:23:57.533Z,32.77
2023-04-18T04:24:57.532Z,32.78
2023-04-18T04:25:57.528Z,32.77
2023-04-18T04:26:57.557Z,32.77
2023-04-18T04:27:57.526Z,32.78
2023-04-18T04:28:57.524Z,32.77
2023-04-18T04:29:57.525Z,32.79
2023-04-18T04:30:57.520Z,32.76
2023-04-18T04:31:57.568Z,32.77
2023-04-18T04:32:57.539Z,32.73
2023-04-18T04:33:57.522Z,32.75
2023-04-18T04:34:57.521Z,32.75
2023-04-18T04:35:57.511Z,32.77
2023-04-18T04:36:57.510Z,32.73
2023-04-18T04:37:57.512Z,32.72
2023-04-18T04:38:57.512Z,32.74
2023-04-18T04:39:57.525Z,32.70
2023-04-18T04:40:57.503Z,32.73
2023-04-18T04:41:57.528Z,32.71
2023-04-18T04:42:57.523Z,32.72
2023-04-18T04:43:57.504Z,32.73
2023-04-18T04:44:57.547Z,32.70
2023-04-18T04:45:57.598Z,32.70
2023-04-18T04:46:57.495Z,32.71
2023-04-18T04:47:57.541Z,32.71
2023-04-18T04:48:57.482Z,32.71
2023-04-18T04:49:57.473Z,32.69
2023-04-18T04:50:57.470Z,32.72
2023-04-18T04:51:58.035Z,32.69
2023-04-18T04:52:57.458Z,32.71
2023-04-18T04:53:57.458Z,32.68
2023-04-18T04:54:57.475Z,32.70
2023-04-18T04:55:57.453Z,32.70
2023-04-18T04:56:57.440Z,32.69
2023-04-18T04:57:57.444Z,32.67
2023-04-18T04:58:57.462Z,32.67
2023-04-18T04:59:57.438Z,32.66
2023-04-18T05:00:57.479Z,32.68
2023-04-18T05:01:57.501Z,32.64
2023-04-18T05:02:57.600Z,32.67
2023-04-18T05:03:57.509Z,32.67
2023-04-18T05:04:57.404Z,32.66
2023-04-18T05:05:57.385Z,32.66
2023-04-18T05:06:57.372Z,32.67
2023-04-18T05:07:57.365Z,32.66
2023-04-18T05:08:57.359Z,32.66
2023-04-18T05:09:57.365Z,32.64
2023-04-18T05:10:57.341Z,32.62
2023-04-18T05:11:57.334Z,32.54
2023-04-18T05:12:57.324Z,32.52
2023-04-18T05:13:57.333Z,32.45
2023-04-18T05:14:57.334Z,32.40
2023-04-18T05:15:57.295Z,32.33
2023-04-18T05:16:57.354Z,32.33
2023-04-18T05:17:57.470Z,32.29
2023-04-18T05:18:57.287Z,32.33
2023-04-18T05:19:57.283Z,32.37
2023-04-18T05:20:57.260Z,32.46
2023-04-18T05:21:57.261Z,32.51
2023-04-18T05:22:57.312Z,32.88
2023-04-18T05:23:57.257Z,33.00
2023-04-18T05:24:57.262Z,33.00
2023-04-18T05:25:57.455Z,33.01
2023-04-18T05:26:57.230Z,33.11
2023-04-18T05:27:57.229Z,33.23
2023-04-18T05:28:57.224Z,33.29
2023-04-18T05:29:57.221Z,33.29
2023-04-18T05:30:57.512Z,33.35
2023-04-18T05:31:57.187Z,33.36
2023-04-18T05:32:57.245Z,33.40
2023-04-18T05:33:57.171Z,33.47
2023-04-18T05:34:57.153Z,33.53
2023-04-18T05:35:57.159Z,33.61
2023-04-18T05:36:57.937Z,33.59
2023-04-18T05:37:57.460Z,33.63
2023-04-18T05:38:57.143Z,33.68
2023-04-18T05:40:00.015Z,33.75
2023-04-18T05:40:57.106Z,33.72
2023-04-18T05:41:57.128Z,33.76
2023-04-18T05:42:57.266Z,33.78
2023-04-18T05:44:04.937Z,33.77
2023-04-18T05:44:57.124Z,33.83
2023-04-18T05:45:58.002Z,33.79
2023-04-18T05:46:57.148Z,33.79
2023-04-18T05:47:57.480Z,33.92
2023-04-18T05:48:57.461Z,33.89
2023-04-18T05:49:57.444Z,33.94
2023-04-18T05:50:56.979Z,33.98
2023-04-18T05:51:56.960Z,34.35
2023-04-18T05:52:56.932Z,34.80
2023-04-18T05:53:57.964Z,34.78
2023-04-18T05:54:56.888Z,35.39
2023-04-18T05:55:56.900Z,35.38
2023-04-18T05:56:56.891Z,35.23
2023-04-18T05:57:56.957Z,35.34
2023-04-18T05:58:56.830Z,35.52
2023-04-18T05:59:56.965Z,35.55
2023-04-18T06:00:56.764Z,35.59
2023-04-18T06:01:56.787Z,35.61
2023-04-18T06:02:57.163Z,35.81
2023-04-18T06:03:57.031Z,35.90
2023-04-18T06:04:56.862Z,35.91
2023-04-18T06:05:56.685Z,35.93
2023-04-18T06:06:56.678Z,36.04
2023-04-18T06:07:56.958Z,36.14
2023-04-18T06:08:56.757Z,36.13
2023-04-18T06:09:57.052Z,36.10
2023-04-18T06:10:56.849Z,36.11
2023-04-18T06:11:56.854Z,36.20
2023-04-18T06:12:56.890Z,36.22
2023-04-18T06:13:56.960Z,36.27
2023-04-18T06:14:57.544Z,36.23
2023-04-18T06:15:57.573Z,36.30
2023-04-18T06:16:57.462Z,36.36
2023-04-18T06:17:57.651Z,36.31
2023-04-18T06:18:59.683Z,36.34
2023-04-18T06:19:57.722Z,36.33
2023-04-18T06:20:57.381Z,36.38
2023-04-18T06:21:57.481Z,36.35
2023-04-18T06:22:57.502Z,36.35
2023-04-18T06:23:57.652Z,36.36
2023-04-18T06:24:57.446Z,36.32
2023-04-18T06:25:57.284Z,36.31
2023-04-18T06:26:57.138Z,36.30
2023-04-18T06:27:56.931Z,36.34
2023-04-18T06:28:57.170Z,36.54
2023-04-18T06:29:57.479Z,36.55
2023-04-18T06:30:57.034Z,36.60
2023-04-18T06:31:57.097Z,36.45
2023-04-18T06:32:57.328Z,36.43
2023-04-18T06:33:57.304Z,36.39
2023-04-18T06:34:57.032Z,36.38
2023-04-18T06:35:56.813Z,36.41
2023-04-18T06:36:56.813Z,36.37
2023-04-18T06:37:56.819Z,36.35
2023-04-18T06:38:56.966Z,36.38
2023-04-18T06:39:56.867Z,36.39
2023-04-18T06:40:56.835Z,36.45
2023-04-18T06:41:56.846Z,36.31
2023-04-18T06:42:56.846Z,36.20
2023-04-18T06:44:02.604Z,36.25
2023-04-18T06:44:56.829Z,36.20
2023-04-18T06:45:56.887Z,36.20
2023-04-18T06:46:57.019Z,36.23
2023-04-18T06:47:56.771Z,36.20
2023-04-18T06:48:56.696Z,36.14
2023-04-18T06:49:56.980Z,36.15
2023-04-18T06:50:57.039Z,36.20
2023-04-18T06:51:56.610Z,36.13
2023-04-18T06:53:00.229Z,36.08
2023-04-18T06:53:56.494Z,36.13
2023-04-18T06:54:56.499Z,36.08
2023-04-18T06:55:56.410Z,35.87
2023-04-18T06:56:56.378Z,35.92
2023-04-18T06:57:56.348Z,35.92
2023-04-18T06:58:57.470Z,35.96
2023-04-18T06:59:56.279Z,36.01
2023-04-18T07:00:56.571Z,35.99
2023-04-18T07:01:56.215Z,35.93
2023-04-18T07:02:56.318Z,35.89
2023-04-18T07:03:56.649Z,35.96
2023-04-18T07:04:56.090Z,35.96
2023-04-18T07:05:56.044Z,35.90
2023-04-18T07:06:56.170Z,35.94
2023-04-18T07:07:55.966Z,35.92
2023-04-18T07:08:56.978Z,35.89
2023-04-18T07:09:55.887Z,35.83
2023-04-18T07:11:11.437Z,35.90
2023-04-18T07:11:55.805Z,35.89
2023-04-18T07:12:55.799Z,35.87
2023-04-18T07:13:55.991Z,35.86
2023-04-18T07:14:55.713Z,35.86
2023-04-18T07:15:55.673Z,35.75
2023-04-18T07:16:55.672Z,35.69
2023-04-18T07:17:55.617Z,35.72
2023-04-18T07:18:55.565Z,35.66
2023-04-18T07:19:55.530Z,35.57
2023-04-18T07:20:55.501Z,35.66
2023-04-18T07:21:55.463Z,35.64
2023-04-18T07:22:55.485Z,35.66
2023-04-18T07:23:55.485Z,35.61
2023-04-18T07:24:55.344Z,35.63
2023-04-18T07:25:55.305Z,35.62
2023-04-18T07:26:55.386Z,35.61
2023-04-18T07:27:55.484Z,35.67
2023-04-18T07:28:55.476Z,35.67
2023-04-18T07:29:54.168Z,35.59
2023-04-18T07:30:55.185Z,35.57
2023-04-18T07:31:55.081Z,35.52
2023-04-18T07:32:55.112Z,35.61
2023-04-18T07:33:55.531Z,35.62
2023-04-18T07:34:54.997Z,35.75
2023-04-18T07:35:54.960Z,35.83
2023-04-18T07:36:54.890Z,35.82
2023-04-18T07:37:54.872Z,35.94
2023-04-18T07:38:55.099Z,35.85
2023-04-18T07:39:54.823Z,35.78
2023-04-18T07:40:54.794Z,35.73
2023-04-18T07:41:54.784Z,35.77
2023-04-18T07:42:54.719Z,35.77
2023-04-18T07:43:54.998Z,35.89
2023-04-18T07:44:54.626Z,35.83
2023-04-18T07:45:54.601Z,35.81
2023-04-18T07:46:54.551Z,35.72
2023-04-18T07:47:54.547Z,35.66
2023-04-18T07:48:54.493Z,35.51
2023-04-18T07:49:54.441Z,35.48
2023-04-18T07:50:54.526Z,35.48
2023-04-18T07:51:54.319Z,35.45
2023-04-18T07:52:54.283Z,35.51
2023-04-18T07:53:54.230Z,35.86
2023-04-18T07:54:54.521Z,35.63
2023-04-18T07:55:54.502Z,35.36
2023-04-18T07:56:54.114Z,35.25
2023-04-18T07:57:54.084Z,35.17
2023-04-18T07:58:54.034Z,35.00
2023-04-18T07:59:53.982Z,34.91
2023-04-18T08:00:53.997Z,35.01
2023-04-18T08:01:53.937Z,34.91
2023-04-18T08:02:53.931Z,34.89
2023-04-18T08:03:53.976Z,34.86
2023-04-18T08:04:53.974Z,34.83
2023-04-18T08:05:54.001Z,34.86
2023-04-18T08:06:53.749Z,34.93
2023-04-18T08:07:53.721Z,34.93
2023-04-18T08:08:53.993Z,34.87
2023-04-18T08:09:53.660Z,34.79
2023-04-18T08:10:53.732Z,34.81
2023-04-18T08:11:53.605Z,34.77
2023-04-18T08:12:53.569Z,34.78
2023-04-18T08:13:53.525Z,34.75
2023-04-18T08:14:53.497Z,34.70
2023-04-18T08:15:53.543Z,34.68
2023-04-18T08:16:53.431Z,34.61
2023-04-18T08:17:53.405Z,34.58
2023-04-18T08:18:53.375Z,34.58
2023-04-18T08:19:53.505Z,34.54
2023-04-18T08:20:53.316Z,34.51
2023-04-18T08:21:53.301Z,34.50
2023-04-18T08:23:06.115Z,34.47
2023-04-18T08:23:53.289Z,34.51
2023-04-18T08:25:04.469Z,34.53
2023-04-18T08:25:53.205Z,34.52
2023-04-18T08:26:53.239Z,34.39
2023-04-18T08:27:53.127Z,34.40
2023-04-18T08:28:53.101Z,34.37
2023-04-18T08:29:53.534Z,34.55
2023-04-18T08:30:53.032Z,34.54
2023-04-18T08:31:53.072Z,34.63
2023-04-18T08:32:53.101Z,34.78
2023-04-18T08:33:52.947Z,34.81
2023-04-18T08:34:53.031Z,34.91
2023-04-18T08:35:52.858Z,34.93
2023-04-18T08:36:52.809Z,35.01
2023-04-18T08:37:52.807Z,35.05
2023-04-18T08:38:52.754Z,35.09
2023-04-18T08:39:53.804Z,35.10
2023-04-18T08:40:52.687Z,35.17
2023-04-18T08:41:52.648Z,35.31
2023-04-18T08:42:52.738Z,35.43
2023-04-18T08:43:55.149Z,35.41
2023-04-18T08:44:53.019Z,35.24
2023-04-18T08:45:52.620Z,35.22
2023-04-18T08:46:52.474Z,35.28
2023-04-18T08:47:52.465Z,35.22
2023-04-18T08:48:52.407Z,35.29
2023-04-18T08:49:52.512Z,35.25
2023-04-18T08:50:52.338Z,35.24
2023-04-18T08:51:52.284Z,35.46
2023-04-18T08:52:52.261Z,35.46
2023-04-18T08:53:52.513Z,35.46
2023-04-18T08:54:52.182Z,35.42
2023-04-18T08:55:52.168Z,35.44
2023-04-18T08:56:52.141Z,35.42
2023-04-18T08:57:52.086Z,35.46
2023-04-18T08:58:52.594Z,35.41
2023-04-18T08:59:52.048Z,35.46
2023-04-18T09:00:52.084Z,35.49
2023-04-18T09:01:51.043Z,35.52
2023-04-18T09:02:52.723Z,35.44
2023-04-18T09:03:52.078Z,35.52
2023-04-18T09:04:52.001Z,35.50
2023-04-18T09:05:51.988Z,35.47
2023-04-18T09:06:51.978Z,35.53
2023-04-18T09:07:52.014Z,35.48
2023-04-18T09:08:51.919Z,35.40
2023-04-18T09:09:51.890Z,35.42
2023-04-18T09:10:51.875Z,35.10
2023-04-18T09:11:51.833Z,35.22
2023-04-18T09:12:52.128Z,35.29
2023-04-18T09:13:51.782Z,35.33
2023-04-18T09:14:51.905Z,35.40
2023-04-18T09:15:51.739Z,35.42
2023-04-18T09:16:51.743Z,35.42
2023-04-18T09:17:52.036Z,35.30
2023-04-18T09:18:51.652Z,35.45
2023-04-18T09:19:51.620Z,35.46
2023-04-18T09:20:51.590Z,35.53
2023-04-18T09:21:52.022Z,35.52
2023-04-18T09:22:51.620Z,35.50
2023-04-18T09:23:51.587Z,35.53
2023-04-18T09:24:51.564Z,35.47
2023-04-18T09:25:52.027Z,35.53
2023-04-18T09:26:52.024Z,35.60
2023-04-18T09:27:52.061Z,35.62
2023-04-18T09:28:53.734Z,35.64
2023-04-18T09:29:51.538Z,35.61
2023-04-18T09:30:51.697Z,35.62
2023-04-18T09:31:51.534Z,35.68
2023-04-18T09:32:51.618Z,35.55
2023-04-18T09:33:51.404Z,34.59
2023-04-18T09:34:51.376Z,34.14
2023-04-18T09:35:51.342Z,33.94
2023-04-18T09:36:51.559Z,34.07
2023-04-18T09:37:52.266Z,33.71
2023-04-18T09:38:53.720Z,33.73
2023-04-18T09:39:51.212Z,33.91
2023-04-18T09:40:51.532Z,33.97
2023-04-18T09:41:51.163Z,34.01
2023-04-18T09:42:51.147Z,34.08
2023-04-18T09:43:51.159Z,34.04
2023-04-18T09:44:51.207Z,34.03
2023-04-18T09:45:51.548Z,34.03
2023-04-18T09:46:51.448Z,33.99
2023-04-18T09:47:51.560Z,33.98
2023-04-18T09:48:51.342Z,33.89
2023-04-18T09:49:51.391Z,33.86
2023-04-18T09:50:51.460Z,33.92
2023-04-18T09:51:51.558Z,33.91
2023-04-18T09:52:51.513Z,33.93
2023-04-18T09:53:52.581Z,33.86
2023-04-18T09:54:51.599Z,33.98
2023-04-18T09:55:52.082Z,33.98
2023-04-18T09:56:51.681Z,33.93
2023-04-18T09:57:51.727Z,33.92
2023-04-18T09:58:51.767Z,33.97
2023-04-18T09:59:51.790Z,33.96
2023-04-18T10:00:52.044Z,33.95
2023-04-18T10:01:51.940Z,33.95
2023-04-18T10:02:52.093Z,33.90
2023-04-18T10:03:52.054Z,33.96
2023-04-18T10:04:52.207Z,33.96
2023-04-18T10:05:52.554Z,33.96
2023-04-18T10:06:52.100Z,33.93
2023-04-18T10:07:52.255Z,33.92
2023-04-18T10:08:52.140Z,33.96
2023-04-18T10:09:52.184Z,33.93
2023-04-18T10:10:52.555Z,33.98
2023-04-18T10:11:52.227Z,33.99
2023-04-18T10:12:52.292Z,33.96
2023-04-18T10:13:52.321Z,33.97
2023-04-18T10:14:52.538Z,34.00
2023-04-18T10:15:52.471Z,33.97
2023-04-18T10:16:52.420Z,33.98
2023-04-18T10:18:03.468Z,33.98
2023-04-18T10:18:52.632Z,33.98
2023-04-18T10:19:52.425Z,33.96
2023-04-18T10:20:52.395Z,33.94
2023-04-18T10:21:52.366Z,33.91
2023-04-18T10:22:53.587Z,33.92
2023-04-18T10:23:52.303Z,33.88
2023-04-18T10:24:52.556Z,33.90
2023-04-18T10:25:52.258Z,33.92
2023-04-18T10:26:52.945Z,33.91
2023-04-18T10:27:52.195Z,33.99
2023-04-18T10:28:52.551Z,34.16
2023-04-18T10:29:52.161Z,34.18
2023-04-18T10:30:52.132Z,34.11
2023-04-18T10:31:52.667Z,33.85
2023-04-18T10:32:52.127Z,33.68
2023-04-18T10:34:03.178Z,33.48
2023-04-18T10:34:52.101Z,33.25
2023-04-18T10:35:52.047Z,33.13
2023-04-18T10:36:52.049Z,33.06
2023-04-18T10:37:52.352Z,32.95
2023-04-18T10:38:52.029Z,32.97
2023-04-18T10:39:51.987Z,32.89
2023-04-18T10:40:52.116Z,32.83
2023-04-18T10:41:52.092Z,32.69
2023-04-18T10:42:52.072Z,32.65
2023-04-18T10:43:51.937Z,32.99
2023-04-18T10:44:51.922Z,33.08
2023-04-18T10:45:51.938Z,33.19
2023-04-18T10:46:51.984Z,33.20
2023-04-18T10:47:52.117Z,33.01
2023-04-18T10:48:51.862Z,33.17
2023-04-18T10:49:51.836Z,33.23
2023-04-18T10:50:51.837Z,33.17
2023-04-18T10:51:52.680Z,33.11
2023-04-18T10:52:51.767Z,33.10
2023-04-18T10:53:51.758Z,33.09
2023-04-18T10:54:51.747Z,33.09
2023-04-18T10:55:51.728Z,33.05
2023-04-18T10:56:51.717Z,32.86
2023-04-18T10:57:52.056Z,32.74
2023-04-18T10:58:51.720Z,32.88
2023-04-18T10:59:51.657Z,32.94
2023-04-18T11:00:51.675Z,32.90
2023-04-18T11:01:52.062Z,32.84
2023-04-18T11:02:51.750Z,32.79
2023-04-18T11:03:51.813Z,32.76
2023-04-18T11:04:51.566Z,32.81
2023-04-18T11:05:51.551Z,32.85
2023-04-18T11:06:51.647Z,32.83
2023-04-18T11:07:52.060Z,32.92
2023-04-18T11:08:51.571Z,32.93
2023-04-18T11:09:52.059Z,32.95
2023-04-18T11:10:51.589Z,32.98
2023-04-18T11:11:52.068Z,32.95
2023-04-18T11:12:51.597Z,32.97
2023-04-18T11:13:51.612Z,32.98
2023-04-18T11:14:51.622Z,33.07
2023-04-18T11:15:51.627Z,33.18
2023-04-18T11:16:52.139Z,33.19
2023-04-18T11:17:51.674Z,33.16
2023-04-18T11:18:51.661Z,33.17
2023-04-18T11:19:52.073Z,33.22
2023-04-18T11:20:51.666Z,33.31
2023-04-18T11:21:52.094Z,33.34
2023-04-18T11:22:51.814Z,33.35
2023-04-18T11:23:51.668Z,33.35
2023-04-18T11:24:51.673Z,33.48
2023-04-18T11:25:51.686Z,33.55
2023-04-18T11:26:52.072Z,33.52
2023-04-18T11:27:51.722Z,33.51
2023-04-18T11:28:51.693Z,33.52
2023-04-18T11:29:51.705Z,33.57
2023-04-18T11:30:51.757Z,33.60
2023-04-18T11:31:52.123Z,33.67
2023-04-18T11:32:52.141Z,33.72
2023-04-18T11:33:51.713Z,33.75
2023-04-18T11:34:51.725Z,33.71
2023-04-18T11:35:51.711Z,33.70
2023-04-18T11:36:51.717Z,33.77
2023-04-18T11:37:51.730Z,33.85
2023-04-18T11:38:52.096Z,33.85
2023-04-18T11:39:51.734Z,33.81
2023-04-18T11:40:51.747Z,33.73
2023-04-18T11:41:52.072Z,33.64
2023-04-18T11:42:51.781Z,33.60
2023-04-18T11:43:52.089Z,33.75
2023-04-18T11:44:51.814Z,33.68
2023-04-18T11:45:51.843Z,33.68
2023-04-18T11:46:52.130Z,33.74
2023-04-18T11:47:51.899Z,33.78
2023-04-18T11:48:51.871Z,33.80
2023-04-18T11:49:51.871Z,33.70
2023-04-18T11:50:51.894Z,33.70
2023-04-18T11:51:51.925Z,33.70
2023-04-18T11:52:51.968Z,33.78
2023-04-18T11:53:51.965Z,33.67
2023-04-18T11:54:52.053Z,33.61
2023-04-18T11:55:52.041Z,33.62
2023-04-18T11:56:52.083Z,33.67
2023-04-18T11:57:52.034Z,33.76
2023-04-18T11:58:52.062Z,34.12
2023-04-18T11:59:52.091Z,34.31
2023-04-18T12:00:52.119Z,34.27
2023-04-18T12:01:53.204Z,34.39
2023-04-18T12:02:52.316Z,34.42
2023-04-18T12:03:52.282Z,34.48
2023-04-18T12:04:52.360Z,34.47
2023-04-18T12:05:52.312Z,34.54
2023-04-18T12:06:52.653Z,34.71
2023-04-18T12:07:52.175Z,35.25
2023-04-18T12:08:54.022Z,35.94
2023-04-18T12:10:40.856Z,36.44
2023-04-18T12:11:41.858Z,37.06
2023-04-18T12:12:41.672Z,37.21
2023-04-18T12:13:41.840Z,37.28
2023-04-18T12:14:41.675Z,37.18
2023-04-18T12:15:41.589Z,37.25
2023-04-18T12:16:41.993Z,37.28
2023-04-18T12:17:41.985Z,37.14
2023-04-18T12:18:40.859Z,37.04
2023-04-18T12:19:41.716Z,37.05
2023-04-18T12:20:41.605Z,36.86
2023-04-18T12:21:41.592Z,36.84
2023-04-18T12:22:41.858Z,36.64
2023-04-18T12:23:41.957Z,36.67
2023-04-18T12:24:41.906Z,36.68
2023-04-18T12:25:41.837Z,36.66
2023-04-18T12:26:41.773Z,36.57
2023-04-18T12:27:41.864Z,36.43
2023-04-18T12:28:41.979Z,36.31
2023-04-18T12:29:41.827Z,36.30
2023-04-18T12:30:41.905Z,36.37
2023-04-18T12:31:41.968Z,36.27
2023-04-18T12:32:42.558Z,36.15
2023-04-18T12:33:42.350Z,36.04
2023-04-18T12:34:43.086Z,35.88
2023-04-18T12:35:42.015Z,35.86
2023-04-18T12:36:42.119Z,35.82
2023-04-18T12:37:42.365Z,35.77
2023-04-18T12:38:42.509Z,35.70
2023-04-18T12:39:42.182Z,35.72
2023-04-18T12:40:42.183Z,35.71
2023-04-18T12:41:42.162Z,35.69
2023-04-18T12:42:42.389Z,35.68
2023-04-18T12:43:42.237Z,35.58
2023-04-18T12:44:42.279Z,35.52
2023-04-18T12:45:42.380Z,35.44
2023-04-18T12:46:42.439Z,35.42
2023-04-18T12:47:43.118Z,35.42
2023-04-18T12:48:42.338Z,35.39
2023-04-18T12:49:42.628Z,35.38
2023-04-18T12:50:42.431Z,35.30
2023-04-18T12:51:42.477Z,35.22
2023-04-18T12:52:42.295Z,35.30
2023-04-18T12:53:42.342Z,35.31